createdAt,value
2017-03-22T00:00:59.867Z,4.07
2017-03-22T00:02:01.238Z,4.04
2017-03-22T00:03:02.461Z,4.08
2017-03-22T00:04:03.756Z,4.03
2017-03-22T00:05:04.997Z,4.07
2017-03-22T00:06:06.251Z,4.07
2017-03-22T00:07:07.592Z,4.1
2017-03-22T00:08:08.879Z,4.03
2017-03-22T00:09:10.113Z,4.06
2017-03-22T00:10:11.344Z,4.1
2017-03-22T00:11:12.593Z,4.03
2017-03-22T00:12:13.835Z,4.06
2017-03-22T00:13:15.106Z,4.08
2017-03-22T00:14:16.500Z,4.06
2017-03-22T00:15:17.700Z,4.14
2017-03-22T00:16:18.934Z,4.04
2017-03-22T00:17:20.169Z,4.12
2017-03-22T00:18:21.540Z,4.12
2017-03-22T00:19:22.790Z,4.08
2017-03-22T00:20:24.021Z,4.1
2017-03-22T00:21:25.285Z,4.06
2017-03-22T00:22:26.518Z,4.04
2017-03-22T00:23:27.760Z,4.08
2017-03-22T00:24:28.993Z,4.12
2017-03-22T00:25:30.225Z,4.1
2017-03-22T00:26:31.520Z,4.1
2017-03-22T00:27:32.772Z,4.04
2017-03-22T00:28:34.015Z,4.14
2017-03-22T00:29:35.285Z,4.1
2017-03-22T00:30:36.513Z,4.08
2017-03-22T00:31:37.756Z,4.07
2017-03-22T00:32:39.096Z,3.98
2017-03-22T00:33:40.398Z,4.06
2017-03-22T00:34:41.626Z,4.06
2017-03-22T00:35:42.888Z,4.12
2017-03-22T00:36:44.126Z,4.06
2017-03-22T00:37:45.394Z,4.06
2017-03-22T00:38:46.646Z,4.12
2017-03-22T00:39:47.891Z,4.14
2017-03-22T00:40:49.156Z,4.07
2017-03-22T00:41:50.387Z,4.08
2017-03-22T00:42:51.650Z,4.12
2017-03-22T00:43:52.848Z,4.01
2017-03-22T00:44:54.089Z,4.06
2017-03-22T00:45:55.320Z,4.01
2017-03-22T00:46:56.589Z,4.07
2017-03-22T00:47:57.807Z,4.1
2017-03-22T00:48:59.058Z,4.14
2017-03-22T00:50:00.286Z,4.07
2017-03-22T00:51:01.654Z,4.1
2017-03-22T00:52:02.882Z,4.04
2017-03-22T00:53:04.133Z,4.12
2017-03-22T00:54:05.354Z,4.04
2017-03-22T00:55:06.613Z,4.14
2017-03-22T00:56:07.867Z,4.04
2017-03-22T00:57:09.102Z,4.06
2017-03-22T00:58:10.333Z,4.06
2017-03-22T00:59:11.577Z,4.04
2017-03-22T01:00:12.906Z,4.06
2017-03-22T01:01:14.134Z,4.03
2017-03-22T01:02:15.370Z,4.08
2017-03-22T01:03:16.612Z,4.04
2017-03-22T01:04:17.859Z,3.96
2017-03-22T01:05:19.093Z,3.97
2017-03-22T01:06:20.423Z,3.98
2017-03-22T01:07:21.743Z,3.98
2017-03-22T01:08:22.981Z,3.97
2017-03-22T01:09:24.211Z,3.96
2017-03-22T01:10:25.487Z,3.85
2017-03-22T01:11:26.740Z,3.83
2017-03-22T01:12:27.975Z,3.78
2017-03-22T01:13:29.259Z,3.78
2017-03-22T01:14:30.514Z,3.75
2017-03-22T01:15:31.737Z,3.75
2017-03-22T01:16:32.972Z,3.72
2017-03-22T01:17:34.207Z,3.57
2017-03-22T01:18:35.463Z,3.62
2017-03-22T01:19:36.694Z,3.54
2017-03-22T01:20:37.981Z,3.58
2017-03-22T01:21:39.220Z,3.65
2017-03-22T01:22:40.452Z,3.54
2017-03-22T01:23:41.688Z,3.43
2017-03-22T01:24:42.946Z,3.33
2017-03-22T01:25:44.187Z,3.31
2017-03-22T01:26:45.500Z,3.3
2017-03-22T01:27:46.795Z,3.23
2017-03-22T01:28:48.026Z,3.3
2017-03-22T01:29:49.302Z,3.3
2017-03-22T01:30:50.539Z,3.28
2017-03-22T01:31:51.779Z,3.28
2017-03-22T01:32:53.129Z,3.31
2017-03-22T01:33:54.360Z,3.25
2017-03-22T01:34:55.626Z,3.28
2017-03-22T01:35:56.859Z,3.3
2017-03-22T01:36:58.106Z,3.31
2017-03-22T01:37:59.486Z,3.31
2017-03-22T01:39:00.714Z,3.21
2017-03-22T01:40:02.028Z,3.18
2017-03-22T01:41:03.214Z,3.25
2017-03-22T01:42:04.453Z,3.18
2017-03-22T01:43:05.756Z,3.09
2017-03-22T01:44:06.991Z,3.12
2017-03-22T01:45:08.251Z,3.12
2017-03-22T01:46:09.473Z,3.07
2017-03-22T01:47:10.702Z,3.1
2017-03-22T01:48:11.949Z,3.13
2017-03-22T01:49:13.193Z,3.1
2017-03-22T01:50:14.401Z,3.09
2017-03-22T01:51:15.640Z,3.07
2017-03-22T01:52:16.904Z,3.09
2017-03-22T01:53:18.160Z,3.12
2017-03-22T01:54:19.395Z,3.05
2017-03-22T01:55:20.674Z,3.12
2017-03-22T01:56:21.932Z,3.15
2017-03-22T01:57:23.156Z,3.2
2017-03-22T01:58:24.381Z,3.16
2017-03-22T01:59:25.614Z,3.12
2017-03-22T02:00:26.843Z,3.03
2017-03-22T02:01:28.068Z,3.06
2017-03-22T02:02:29.356Z,3.05
2017-03-22T02:03:30.606Z,2.97
2017-03-22T02:04:31.950Z,2.88
2017-03-22T02:05:33.206Z,2.89
2017-03-22T02:06:34.453Z,2.95
2017-03-22T02:07:35.703Z,2.94
2017-03-22T02:08:36.936Z,2.95
2017-03-22T02:09:38.193Z,2.88
2017-03-22T02:10:39.532Z,2.94
2017-03-22T02:11:40.703Z,2.91
2017-03-22T02:12:41.948Z,2.87
2017-03-22T02:13:43.220Z,2.95
2017-03-22T02:14:44.452Z,2.98
2017-03-22T02:15:45.738Z,3.06
2017-03-22T02:16:46.988Z,2.92
2017-03-22T02:17:48.238Z,3.09
2017-03-22T02:18:49.480Z,3.02
2017-03-22T02:19:50.798Z,3
2017-03-22T02:20:52.062Z,3.03
2017-03-22T02:21:53.286Z,3.05
2017-03-22T02:22:54.514Z,3.1
2017-03-22T02:23:55.747Z,3.09
2017-03-22T02:24:57.056Z,3.15
2017-03-22T02:25:58.244Z,3.07
2017-03-22T02:26:59.470Z,3.09
2017-03-22T02:28:00.729Z,3.03
2017-03-22T02:29:02.065Z,3.03
2017-03-22T02:30:03.576Z,3.1
2017-03-22T02:31:04.845Z,2.92
2017-03-22T02:32:06.078Z,3
2017-03-22T02:33:07.351Z,3.05
2017-03-22T02:34:08.554Z,3.02
2017-03-22T02:35:09.844Z,3.03
2017-03-22T02:36:11.084Z,3.05
2017-03-22T02:37:12.323Z,3.09
2017-03-22T02:38:13.552Z,3.15
2017-03-22T02:39:14.780Z,3.03
2017-03-22T02:40:16.018Z,3.05
2017-03-22T02:41:17.251Z,3.03
2017-03-22T02:42:18.470Z,3
2017-03-22T02:43:19.816Z,2.91
2017-03-22T02:44:21.074Z,3.02
2017-03-22T02:45:22.312Z,2.95
2017-03-22T02:46:23.515Z,2.94
2017-03-22T02:47:24.748Z,2.95
2017-03-22T02:48:26.032Z,2.87
2017-03-22T02:49:27.419Z,2.89
2017-03-22T02:50:28.662Z,2.85
2017-03-22T02:51:29.918Z,2.85
2017-03-22T02:52:31.164Z,2.89
2017-03-22T02:53:32.371Z,2.84
2017-03-22T02:54:33.602Z,2.87
2017-03-22T02:55:34.887Z,2.89
2017-03-22T02:56:36.258Z,2.89
2017-03-22T02:57:37.495Z,2.82
2017-03-22T02:58:38.728Z,2.89
2017-03-22T02:59:39.955Z,2.88
2017-03-22T03:00:41.201Z,2.79
2017-03-22T03:01:42.432Z,2.84
2017-03-22T03:02:43.676Z,2.85
2017-03-22T03:03:44.997Z,2.85
2017-03-22T03:04:46.217Z,2.88
2017-03-22T03:05:47.449Z,2.85
2017-03-22T03:06:48.679Z,2.81
2017-03-22T03:07:49.927Z,2.67
2017-03-22T03:08:51.181Z,2.74
2017-03-22T03:09:52.397Z,2.74
2017-03-22T03:10:53.677Z,2.7
2017-03-22T03:11:54.972Z,2.74
2017-03-22T03:12:56.170Z,2.74
2017-03-22T03:13:57.438Z,2.73
2017-03-22T03:14:58.663Z,2.73
2017-03-22T03:15:59.925Z,2.76
2017-03-22T03:17:01.187Z,2.66
2017-03-22T03:18:02.401Z,2.71
2017-03-22T03:19:03.645Z,2.69
2017-03-22T03:20:04.859Z,2.77
2017-03-22T03:21:06.123Z,2.67
2017-03-22T03:22:07.363Z,2.7
2017-03-22T03:23:08.608Z,2.69
2017-03-22T03:24:09.842Z,2.7
2017-03-22T03:25:11.085Z,2.67
2017-03-22T03:26:12.303Z,2.64
2017-03-22T03:27:13.570Z,2.61
2017-03-22T03:28:14.809Z,2.56
2017-03-22T03:29:16.163Z,2.53
2017-03-22T03:30:17.390Z,2.55
2017-03-22T03:31:18.656Z,2.49
2017-03-22T03:32:19.889Z,2.53
2017-03-22T03:33:21.103Z,2.56
2017-03-22T03:34:22.331Z,2.55
2017-03-22T03:35:23.577Z,2.49
2017-03-22T03:36:24.806Z,2.48
2017-03-22T03:37:26.050Z,2.53
2017-03-22T03:38:27.277Z,2.55
2017-03-22T03:39:28.505Z,2.55
2017-03-22T03:40:29.782Z,2.41
2017-03-22T03:41:31.010Z,2.46
2017-03-22T03:42:32.251Z,2.53
2017-03-22T03:43:33.493Z,2.55
2017-03-22T03:44:34.747Z,2.44
2017-03-22T03:45:35.961Z,2.46
2017-03-22T03:46:37.197Z,2.53
2017-03-22T03:47:38.426Z,2.49
2017-03-22T03:48:39.685Z,2.52
2017-03-22T03:49:40.944Z,2.45
2017-03-22T03:50:42.195Z,2.48
2017-03-22T03:51:43.427Z,2.4
2017-03-22T03:52:44.664Z,2.41
2017-03-22T03:53:45.908Z,2.48
2017-03-22T03:54:47.151Z,2.38
2017-03-22T03:55:48.399Z,2.38
2017-03-22T03:56:49.677Z,2.31
2017-03-22T03:57:51.010Z,2.17
2017-03-22T03:58:52.256Z,2.16
2017-03-22T03:59:53.506Z,2.13
2017-03-22T04:00:54.755Z,2.17
2017-03-22T04:01:56.006Z,2.31
2017-03-22T04:02:57.343Z,2.28
2017-03-22T04:03:58.566Z,2.2
2017-03-22T04:04:59.877Z,2.22
2017-03-22T04:06:01.156Z,2.31
2017-03-22T04:07:02.371Z,2.26
2017-03-22T04:08:03.641Z,2.3
2017-03-22T04:09:04.903Z,2.26
2017-03-22T04:10:06.129Z,2.26
2017-03-22T04:11:07.366Z,2.28
2017-03-22T04:12:08.587Z,2.16
2017-03-22T04:13:09.821Z,2.17
2017-03-22T04:14:11.066Z,2.16
2017-03-22T04:15:12.327Z,2.09
2017-03-22T04:16:13.567Z,2.06
2017-03-22T04:17:14.931Z,2.01
2017-03-22T04:18:16.054Z,2.06
2017-03-22T04:19:17.295Z,2.04
2017-03-22T04:20:18.617Z,2.09
2017-03-22T04:21:19.850Z,2.04
2017-03-22T04:22:21.167Z,2.08
2017-03-22T04:23:22.393Z,2.04
2017-03-22T04:24:23.646Z,1.99
2017-03-22T04:25:24.882Z,1.99
2017-03-22T04:26:26.117Z,2.06
2017-03-22T04:27:27.357Z,2.06
2017-03-22T04:28:28.640Z,2.04
2017-03-22T04:29:29.862Z,2.15
2017-03-22T04:30:31.097Z,2.13
2017-03-22T04:31:32.344Z,2.12
2017-03-22T04:32:33.583Z,2.09
2017-03-22T04:33:34.812Z,2.04
2017-03-22T04:34:36.059Z,2.02
2017-03-22T04:35:37.400Z,2.06
2017-03-22T04:36:38.568Z,2.09
2017-03-22T04:37:39.871Z,2.01
2017-03-22T04:38:41.138Z,2.02
2017-03-22T04:39:42.350Z,2.01
2017-03-22T04:40:43.597Z,1.99
2017-03-22T04:41:44.836Z,1.97
2017-03-22T04:42:46.112Z,2.04
2017-03-22T04:43:47.323Z,2.1
2017-03-22T04:44:48.559Z,2.13
2017-03-22T04:45:49.836Z,2.1
2017-03-22T04:46:51.065Z,2.17
2017-03-22T04:47:52.339Z,2.17
2017-03-22T04:48:53.561Z,2.13
2017-03-22T04:49:54.948Z,2.16
2017-03-22T04:50:56.072Z,2.17
2017-03-22T04:51:57.311Z,2.16
2017-03-22T04:52:58.548Z,2.17
2017-03-22T04:53:59.810Z,2.16
2017-03-22T04:55:01.108Z,2.17
2017-03-22T04:56:02.343Z,2.16
2017-03-22T04:57:03.578Z,2.16
2017-03-22T04:58:04.806Z,2.17
2017-03-22T04:59:06.037Z,2.2
2017-03-22T05:00:07.275Z,2.22
2017-03-22T05:01:08.514Z,2.13
2017-03-22T05:02:09.863Z,2.17
2017-03-22T05:03:11.105Z,2.09
2017-03-22T05:04:12.322Z,2.12
2017-03-22T05:05:13.556Z,2.15
2017-03-22T05:06:14.788Z,2.17
2017-03-22T05:07:16.036Z,2.09
2017-03-22T05:08:17.300Z,2.06
2017-03-22T05:09:18.530Z,2.12
2017-03-22T05:10:19.756Z,2.1
2017-03-22T05:11:20.984Z,2.06
2017-03-22T05:12:22.214Z,2.06
2017-03-22T05:13:23.452Z,2.12
2017-03-22T05:14:24.685Z,2.04
2017-03-22T05:15:25.930Z,2.04
2017-03-22T05:16:27.186Z,2.01
2017-03-22T05:17:28.396Z,1.98
2017-03-22T05:18:29.641Z,1.98
2017-03-22T05:19:30.874Z,2.01
2017-03-22T05:20:32.115Z,1.97
2017-03-22T05:21:33.359Z,1.91
2017-03-22T05:22:34.575Z,1.91
2017-03-22T05:23:35.956Z,1.9
2017-03-22T05:24:37.207Z,1.82
2017-03-22T05:25:38.443Z,1.78
2017-03-22T05:26:39.685Z,1.79
2017-03-22T05:27:40.933Z,1.68
2017-03-22T05:28:42.164Z,1.65
2017-03-22T05:29:43.412Z,1.69
2017-03-22T05:30:44.656Z,1.57
2017-03-22T05:31:45.911Z,1.64
2017-03-22T05:32:47.156Z,1.68
2017-03-22T05:33:48.457Z,1.57
2017-03-22T05:34:49.716Z,1.62
2017-03-22T05:35:50.990Z,1.64
2017-03-22T05:36:52.223Z,1.6
2017-03-22T05:37:53.462Z,1.64
2017-03-22T05:38:54.714Z,1.6
2017-03-22T05:39:55.983Z,1.55
2017-03-22T05:40:57.209Z,1.51
2017-03-22T05:41:58.445Z,1.46
2017-03-22T05:42:59.676Z,1.47
2017-03-22T05:44:00.899Z,1.44
2017-03-22T05:45:02.133Z,1.43
2017-03-22T05:46:03.610Z,1.4
2017-03-22T05:47:04.894Z,1.37
2017-03-22T05:48:06.171Z,1.39
2017-03-22T05:49:07.384Z,1.32
2017-03-22T05:50:08.642Z,1.42
2017-03-22T05:51:10.200Z,1.39
2017-03-22T05:52:11.482Z,1.4
2017-03-22T05:53:12.719Z,1.42
2017-03-22T05:54:13.960Z,1.5
2017-03-22T05:55:15.219Z,1.44
2017-03-22T05:56:16.427Z,1.55
2017-03-22T05:57:17.666Z,1.5
2017-03-22T05:58:19.017Z,1.6
2017-03-22T05:59:20.312Z,1.61
2017-03-22T06:00:21.599Z,1.55
2017-03-22T06:01:22.934Z,1.54
2017-03-22T06:02:24.174Z,1.52
2017-03-22T06:03:25.416Z,1.62
2017-03-22T06:04:26.675Z,1.58
2017-03-22T06:05:28.005Z,1.58
2017-03-22T06:06:29.252Z,1.62
2017-03-22T06:07:30.486Z,1.69
2017-03-22T06:08:31.750Z,1.62
2017-03-22T06:09:32.989Z,1.72
2017-03-22T06:10:34.218Z,1.78
2017-03-22T06:11:35.633Z,1.89
2017-03-22T06:12:36.994Z,1.94
2017-03-22T06:13:38.116Z,1.98
2017-03-22T06:14:39.364Z,2.04
2017-03-22T06:15:40.630Z,2.26
2017-03-22T06:16:41.963Z,2.51
2017-03-22T06:17:43.411Z,2.64
2017-03-22T06:18:44.708Z,2.87
2017-03-22T06:19:45.939Z,2.94
2017-03-22T06:20:47.194Z,3.1
2017-03-22T06:21:48.434Z,3.27
2017-03-22T06:22:49.770Z,3.27
2017-03-22T06:23:51.023Z,3.52
2017-03-22T06:24:52.252Z,3.54
2017-03-22T06:25:53.492Z,3.62
2017-03-22T06:26:54.717Z,3.58
2017-03-22T06:27:56.055Z,3.7
2017-03-22T06:28:57.311Z,3.67
2017-03-22T06:29:58.579Z,3.68
2017-03-22T06:30:59.938Z,3.71
2017-03-22T06:32:01.162Z,3.86
2017-03-22T06:33:02.390Z,3.98
2017-03-22T06:34:03.632Z,4.04
2017-03-22T06:35:04.963Z,4.1
2017-03-22T06:36:06.192Z,4.28
2017-03-22T06:37:07.486Z,4.42
2017-03-22T06:38:08.736Z,4.79
2017-03-22T06:39:09.969Z,5.05
2017-03-22T06:40:11.227Z,5.17
2017-03-22T06:41:12.489Z,5.38
2017-03-22T06:42:13.765Z,5.66
2017-03-22T06:43:14.995Z,6.09
2017-03-22T06:44:16.217Z,6.4
2017-03-22T06:45:17.451Z,6.71
2017-03-22T06:46:18.692Z,6.99
2017-03-22T06:47:19.985Z,6.99
2017-03-22T06:48:21.228Z,7.09
2017-03-22T06:49:22.581Z,7.13
2017-03-22T06:50:23.880Z,7.32
2017-03-22T06:51:25.143Z,7.35
2017-03-22T06:52:26.363Z,7.38
2017-03-22T06:53:27.601Z,7.56
2017-03-22T06:54:28.849Z,7.82
2017-03-22T06:55:30.194Z,8.1
2017-03-22T06:56:31.481Z,8.28
2017-03-22T06:57:32.717Z,8.44
2017-03-22T06:58:33.962Z,8.78
2017-03-22T06:59:35.292Z,8.86
2017-03-22T07:00:36.671Z,9.06
2017-03-22T07:01:37.954Z,9.53
2017-03-22T07:02:39.212Z,9.91
2017-03-22T07:03:40.462Z,10.32
2017-03-22T07:04:41.696Z,10.52
2017-03-22T07:05:42.989Z,10.98
2017-03-22T07:06:44.207Z,11.47
2017-03-22T07:07:45.488Z,11.72
2017-03-22T07:08:46.727Z,12.01
2017-03-22T07:09:47.957Z,12.2
2017-03-22T07:10:49.203Z,12.19
2017-03-22T07:11:50.456Z,12.42
2017-03-22T07:12:51.707Z,12.15
2017-03-22T07:13:52.940Z,11.86
2017-03-22T07:14:54.199Z,11.77
2017-03-22T07:15:55.440Z,12.13
2017-03-22T07:16:56.680Z,12.26
2017-03-22T07:17:57.922Z,12.52
2017-03-22T07:18:59.165Z,12.81
2017-03-22T07:20:00.535Z,13
2017-03-22T07:21:01.766Z,13.37
2017-03-22T07:22:03.014Z,13.54
2017-03-22T07:23:04.255Z,14.1
2017-03-22T07:24:05.525Z,14.6
2017-03-22T07:25:06.763Z,14.54
2017-03-22T07:26:08.042Z,14.91
2017-03-22T07:27:09.317Z,15.39
2017-03-22T07:28:10.537Z,15.88
2017-03-22T07:29:11.843Z,16.33
2017-03-22T07:30:13.089Z,16.48
2017-03-22T07:31:14.341Z,16.81
2017-03-22T07:32:15.643Z,17.22
2017-03-22T07:33:16.840Z,17.36
2017-03-22T07:34:18.094Z,17.67
2017-03-22T07:35:19.361Z,17.54
2017-03-22T07:36:20.622Z,17.54
2017-03-22T07:37:21.982Z,17.76
2017-03-22T07:38:23.231Z,17.64
2017-03-22T07:39:24.473Z,17.7
2017-03-22T07:40:25.725Z,17.94
2017-03-22T07:41:26.962Z,18.36
2017-03-22T07:42:28.209Z,17.94
2017-03-22T07:43:29.479Z,17.95
2017-03-22T07:44:30.731Z,17.91
2017-03-22T07:45:31.988Z,17.67
2017-03-22T07:46:33.238Z,17.4
2017-03-22T07:47:34.478Z,18
2017-03-22T07:48:35.773Z,18.79
2017-03-22T07:49:37.024Z,19.25
2017-03-22T07:50:38.362Z,19.83
2017-03-22T07:51:39.662Z,20.15
2017-03-22T07:52:40.938Z,20.5
2017-03-22T07:53:42.178Z,20.81
2017-03-22T07:54:43.423Z,21.42
2017-03-22T07:55:44.668Z,21.75
2017-03-22T07:56:45.949Z,22.1
2017-03-22T07:57:47.191Z,22.43
2017-03-22T07:58:48.439Z,22.75
2017-03-22T07:59:49.732Z,22.94
2017-03-22T08:00:50.973Z,23.02
2017-03-22T08:01:52.230Z,23.15
2017-03-22T08:02:53.497Z,23.52
2017-03-22T08:03:54.811Z,23.82
2017-03-22T08:04:56.124Z,23.92
2017-03-22T08:05:57.380Z,23.62
2017-03-22T08:06:58.625Z,23.57
2017-03-22T08:07:59.930Z,23.71
2017-03-22T08:09:01.204Z,23.5
2017-03-22T08:10:02.443Z,23.38
2017-03-22T08:11:03.709Z,23.14
2017-03-22T08:12:04.939Z,23.01
2017-03-22T08:13:06.189Z,22.19
2017-03-22T08:14:07.441Z,21.91
2017-03-22T08:15:08.689Z,22.09
2017-03-22T08:16:09.954Z,22.04
2017-03-22T08:17:11.235Z,21.35
2017-03-22T08:18:12.479Z,21.16
2017-03-22T08:19:13.779Z,21.02
2017-03-22T08:20:15.019Z,21.17
2017-03-22T08:21:16.262Z,21.24
2017-03-22T08:22:17.759Z,21.3
2017-03-22T08:23:19.004Z,21.81
2017-03-22T08:24:20.218Z,22.12
2017-03-22T08:25:21.470Z,22.35
2017-03-22T08:26:22.715Z,22.59
2017-03-22T08:27:24.026Z,22.72
2017-03-22T08:28:25.290Z,22.57
2017-03-22T08:29:26.596Z,22.27
2017-03-22T08:30:27.913Z,22.29
2017-03-22T08:31:29.180Z,22.46
2017-03-22T08:32:30.410Z,22.31
2017-03-22T08:33:31.784Z,22.83
2017-03-22T08:34:32.927Z,23.52
2017-03-22T08:35:34.220Z,23.65
2017-03-22T08:36:35.447Z,23.92
2017-03-22T08:37:36.704Z,23.77
2017-03-22T08:38:38.003Z,23.43
2017-03-22T08:39:39.285Z,23.26
2017-03-22T08:40:40.538Z,23.17
2017-03-22T08:41:41.798Z,23.43
2017-03-22T08:42:43.156Z,23.57
2017-03-22T08:43:44.396Z,23.34
2017-03-22T08:44:45.683Z,23.55
2017-03-22T08:45:46.937Z,23.71
2017-03-22T08:46:48.220Z,23.95
2017-03-22T08:47:49.518Z,24.04
2017-03-22T08:48:50.767Z,23.68
2017-03-22T08:49:52.077Z,23.09
2017-03-22T08:50:53.445Z,22.78
2017-03-22T08:51:54.736Z,22.77
2017-03-22T08:52:56.006Z,22.71
2017-03-22T08:53:57.267Z,22.83
2017-03-22T08:54:58.529Z,22.16
2017-03-22T08:55:59.825Z,22.23
2017-03-22T08:57:01.097Z,21.61
2017-03-22T08:58:02.362Z,21.5
2017-03-22T08:59:03.647Z,21.51
2017-03-22T09:00:05.026Z,21.44
2017-03-22T09:01:06.255Z,21.24
2017-03-22T09:02:07.535Z,20.35
2017-03-22T09:03:08.818Z,19.9
2017-03-22T09:04:10.077Z,19.72
2017-03-22T09:05:11.328Z,20
2017-03-22T09:06:12.583Z,20.1
2017-03-22T09:07:13.838Z,20.34
2017-03-22T09:08:15.095Z,20.51
2017-03-22T09:09:16.321Z,19.93
2017-03-22T09:10:17.605Z,19.54
2017-03-22T09:11:18.841Z,19.47
2017-03-22T09:12:20.107Z,19.75
2017-03-22T09:13:21.348Z,20.23
2017-03-22T09:14:22.611Z,20.49
2017-03-22T09:15:23.889Z,20.96
2017-03-22T09:16:25.246Z,21.32
2017-03-22T09:17:26.504Z,21.71
2017-03-22T09:18:27.754Z,21.24
2017-03-22T09:19:28.993Z,21.44
2017-03-22T09:20:30.262Z,21.67
2017-03-22T09:21:31.584Z,21.79
2017-03-22T09:22:32.855Z,20.98
2017-03-22T09:23:34.084Z,20.74
2017-03-22T09:24:35.336Z,20.28
2017-03-22T09:25:36.593Z,20.3
2017-03-22T09:26:37.970Z,20.56
2017-03-22T09:27:39.199Z,20.77
2017-03-22T09:28:40.547Z,20.61
2017-03-22T09:29:41.855Z,20.58
2017-03-22T09:30:43.103Z,20.54
2017-03-22T09:31:44.412Z,20.83
2017-03-22T09:32:45.755Z,20.91
2017-03-22T09:33:47.043Z,20.76
2017-03-22T09:34:48.297Z,21.13
2017-03-22T09:35:49.562Z,21.53
2017-03-22T09:36:50.821Z,21.98
2017-03-22T09:37:52.060Z,22.37
2017-03-22T09:38:53.319Z,22.69
2017-03-22T09:39:54.583Z,22.68
2017-03-22T09:40:55.829Z,23.02
2017-03-22T09:41:57.105Z,23.38
2017-03-22T09:42:58.349Z,23.7
2017-03-22T09:43:59.616Z,23.65
2017-03-22T09:45:00.878Z,23.55
2017-03-22T09:46:02.131Z,23.43
2017-03-22T09:47:03.411Z,23.08
2017-03-22T09:48:04.662Z,23.22
2017-03-22T09:49:05.958Z,23.31
2017-03-22T09:50:07.202Z,23.6
2017-03-22T09:51:08.449Z,23.61
2017-03-22T09:52:09.699Z,23.5
2017-03-22T09:53:10.945Z,23.43
2017-03-22T09:54:12.228Z,23.5
2017-03-22T09:55:13.479Z,23.6
2017-03-22T09:56:14.745Z,23.85
2017-03-22T09:57:15.993Z,24.08
2017-03-22T09:58:17.250Z,23.68
2017-03-22T09:59:18.520Z,23.4
2017-03-22T10:00:19.813Z,22.2
2017-03-22T10:01:21.125Z,21.98
2017-03-22T10:02:22.358Z,22.22
2017-03-22T10:03:23.623Z,22.47
2017-03-22T10:04:24.897Z,23.02
2017-03-22T10:05:26.180Z,23.23
2017-03-22T10:06:27.547Z,23.14
2017-03-22T10:07:28.814Z,22.97
2017-03-22T10:08:30.026Z,22.89
2017-03-22T10:09:31.295Z,22.44
2017-03-22T10:10:32.531Z,22.19
2017-03-22T10:11:33.894Z,21.83
2017-03-22T10:12:35.125Z,22.19
2017-03-22T10:13:36.380Z,22.74
2017-03-22T10:14:37.643Z,23.24
2017-03-22T10:15:38.902Z,23.31
2017-03-22T10:16:40.185Z,23.07
2017-03-22T10:17:41.540Z,23.24
2017-03-22T10:18:42.769Z,23.52
2017-03-22T10:19:44.023Z,23.52
2017-03-22T10:20:45.284Z,24.07
2017-03-22T10:21:46.527Z,24.87
2017-03-22T10:22:47.821Z,24.69
2017-03-22T10:23:49.084Z,24.39
2017-03-22T10:24:50.340Z,24.37
2017-03-22T10:25:51.595Z,24.04
2017-03-22T10:26:52.871Z,23.87
2017-03-22T10:27:54.129Z,24.29
2017-03-22T10:28:55.356Z,24.05
2017-03-22T10:29:56.695Z,24.42
2017-03-22T10:30:57.938Z,23.95
2017-03-22T10:31:59.195Z,23.55
2017-03-22T10:33:00.453Z,22.94
2017-03-22T10:34:01.706Z,22.84
2017-03-22T10:35:02.956Z,22.52
2017-03-22T10:36:04.216Z,22.43
2017-03-22T10:37:05.474Z,22.49
2017-03-22T10:38:06.723Z,22.54
2017-03-22T10:39:08.013Z,21.63
2017-03-22T10:40:09.230Z,20.24
2017-03-22T10:41:10.489Z,19.7
2017-03-22T10:42:11.824Z,19.65
2017-03-22T10:43:13.129Z,19.9
2017-03-22T10:44:14.380Z,20.49
2017-03-22T10:45:15.638Z,20.59
2017-03-22T10:46:16.933Z,20.43
2017-03-22T10:47:18.212Z,19.94
2017-03-22T10:48:19.506Z,19.46
2017-03-22T10:49:20.842Z,19.54
2017-03-22T10:50:22.089Z,19.54
2017-03-22T10:51:23.411Z,19.23
2017-03-22T10:52:24.639Z,18.42
2017-03-22T10:53:25.960Z,17.87
2017-03-22T10:54:27.194Z,17.59
2017-03-22T10:55:28.456Z,16.62
2017-03-22T10:56:29.877Z,16.41
2017-03-22T10:57:31.086Z,15.97
2017-03-22T10:58:32.379Z,16.01
2017-03-22T10:59:33.683Z,15.52
2017-03-22T11:00:34.930Z,15.45
2017-03-22T11:01:36.226Z,15.45
2017-03-22T11:02:37.474Z,15.15
2017-03-22T11:03:38.744Z,14.75
2017-03-22T11:04:39.998Z,14.56
2017-03-22T11:05:41.228Z,14.25
2017-03-22T11:06:42.485Z,13.92
2017-03-22T11:07:43.859Z,13.88
2017-03-22T11:08:45.089Z,13.91
2017-03-22T11:09:46.356Z,13.89
2017-03-22T11:10:47.603Z,13.83
2017-03-22T11:11:48.870Z,13.79
2017-03-22T11:12:50.088Z,13.76
2017-03-22T11:13:51.339Z,13.43
2017-03-22T11:14:52.570Z,13.21
2017-03-22T11:15:53.819Z,13
2017-03-22T11:16:55.060Z,12.93
2017-03-22T11:17:56.299Z,13.07
2017-03-22T11:18:57.588Z,13.09
2017-03-22T11:19:58.827Z,13
2017-03-22T11:21:00.104Z,12.88
2017-03-22T11:22:01.426Z,12.74
2017-03-22T11:23:02.574Z,12.54
2017-03-22T11:24:03.815Z,12.56
2017-03-22T11:25:05.057Z,12.7
2017-03-22T11:26:06.346Z,12.74
2017-03-22T11:27:07.735Z,12.78
2017-03-22T11:28:08.861Z,12.79
2017-03-22T11:29:10.120Z,12.93
2017-03-22T11:30:11.362Z,12.97
2017-03-22T11:31:12.605Z,13.15
2017-03-22T11:32:13.906Z,13.3
2017-03-22T11:33:15.147Z,13.49
2017-03-22T11:34:16.410Z,13.38
2017-03-22T11:35:17.636Z,13.43
2017-03-22T11:36:18.876Z,13.4
2017-03-22T11:37:20.133Z,13.54
2017-03-22T11:38:21.386Z,13.62
2017-03-22T11:39:22.691Z,13.63
2017-03-22T11:40:23.951Z,13.58
2017-03-22T11:41:25.245Z,13.54
2017-03-22T11:42:26.446Z,13.65
2017-03-22T11:43:27.726Z,13.63
2017-03-22T11:44:28.940Z,13.51
2017-03-22T11:45:30.187Z,13.49
2017-03-22T11:46:31.524Z,13.62
2017-03-22T11:47:32.725Z,13.74
2017-03-22T11:48:33.989Z,13.84
2017-03-22T11:49:35.253Z,13.51
2017-03-22T11:50:36.517Z,13.52
2017-03-22T11:51:37.789Z,13.37
2017-03-22T11:52:39.046Z,13.22
2017-03-22T11:53:40.305Z,13.21
2017-03-22T11:54:41.558Z,13.22
2017-03-22T11:55:42.806Z,13.29
2017-03-22T11:56:44.103Z,13.47
2017-03-22T11:57:45.466Z,13.63
2017-03-22T11:58:46.718Z,13.87
2017-03-22T11:59:48.082Z,14.1
2017-03-22T12:00:49.312Z,14.19
2017-03-22T12:01:50.544Z,14.27
2017-03-22T12:02:51.803Z,14.31
2017-03-22T12:03:53.046Z,14.1
2017-03-22T12:04:54.299Z,14.02
2017-03-22T12:05:55.618Z,13.89
2017-03-22T12:06:56.854Z,13.88
2017-03-22T12:07:58.087Z,13.95
2017-03-22T12:08:59.330Z,14.04
2017-03-22T12:10:00.585Z,14.13
2017-03-22T12:11:01.841Z,14.2
2017-03-22T12:12:03.083Z,14.34
2017-03-22T12:13:04.328Z,14.28
2017-03-22T12:14:05.571Z,13.96
2017-03-22T12:15:06.809Z,14.01
2017-03-22T12:16:08.100Z,13.79
2017-03-22T12:17:09.358Z,13.29
2017-03-22T12:18:10.651Z,13.07
2017-03-22T12:19:11.953Z,13.11
2017-03-22T12:20:13.248Z,13.27
2017-03-22T12:21:14.505Z,13.3
2017-03-22T12:22:15.756Z,13.51
2017-03-22T12:23:16.996Z,13.55
2017-03-22T12:24:18.244Z,13.67
2017-03-22T12:25:19.539Z,13.61
2017-03-22T12:26:20.781Z,13.69
2017-03-22T12:27:22.093Z,13.79
2017-03-22T12:28:23.332Z,13.77
2017-03-22T12:29:24.604Z,13.95
2017-03-22T12:30:25.889Z,14.14
2017-03-22T12:31:27.119Z,14.13
2017-03-22T12:32:28.381Z,14.17
2017-03-22T12:33:29.615Z,14.31
2017-03-22T12:34:30.877Z,14.49
2017-03-22T12:35:32.119Z,14.34
2017-03-22T12:36:33.405Z,14.24
2017-03-22T12:37:34.644Z,14.21
2017-03-22T12:38:35.886Z,14.1
2017-03-22T12:39:37.164Z,13.87
2017-03-22T12:40:38.382Z,13.7
2017-03-22T12:41:39.764Z,13.84
2017-03-22T12:42:40.999Z,14.14
2017-03-22T12:43:42.241Z,14.32
2017-03-22T12:44:43.480Z,14.31
2017-03-22T12:45:44.716Z,14.19
2017-03-22T12:46:46.042Z,14.25
2017-03-22T12:47:47.413Z,14.19
2017-03-22T12:48:48.756Z,14.17
2017-03-22T12:49:50.010Z,13.88
2017-03-22T12:50:51.285Z,13.91
2017-03-22T12:51:52.522Z,13.76
2017-03-22T12:52:53.801Z,13.67
2017-03-22T12:53:55.050Z,13.55
2017-03-22T12:54:56.360Z,13.51
2017-03-22T12:55:57.671Z,13.51
2017-03-22T12:56:58.933Z,13.55
2017-03-22T12:58:00.186Z,13.63
2017-03-22T12:59:01.441Z,13.67
2017-03-22T13:00:02.678Z,13.73
2017-03-22T13:01:03.976Z,13.67
2017-03-22T13:02:05.203Z,13.63
2017-03-22T13:03:06.444Z,13.22
2017-03-22T13:04:07.704Z,13.02
2017-03-22T13:05:08.954Z,13
2017-03-22T13:06:10.247Z,13
2017-03-22T13:07:12.309Z,13.17
2017-03-22T13:08:13.556Z,13.41
2017-03-22T13:09:14.797Z,13.58
2017-03-22T13:10:16.131Z,13.67
2017-03-22T13:11:17.443Z,13.79
2017-03-22T13:12:18.707Z,14.1
2017-03-22T13:13:19.936Z,14.12
2017-03-22T13:14:21.189Z,14.21
2017-03-22T13:15:22.467Z,14.14
2017-03-22T13:16:23.721Z,14.13
2017-03-22T13:17:24.941Z,14.27
2017-03-22T13:18:26.187Z,14.12
2017-03-22T13:19:27.468Z,14.04
2017-03-22T13:20:28.704Z,13.95
2017-03-22T13:21:30.003Z,13.95
2017-03-22T13:22:31.245Z,13.79
2017-03-22T13:23:32.477Z,13.83
2017-03-22T13:24:33.722Z,13.84
2017-03-22T13:25:34.955Z,14.17
2017-03-22T13:26:36.194Z,14.06